createdAt,value
2018-03-28T00:02:21.385Z,5.11
2018-03-28T00:04:48.906Z,5.13
2018-03-28T00:07:16.421Z,5.10
2018-03-28T00:09:43.919Z,5.10
2018-03-28T00:12:11.427Z,5.07
2018-03-28T00:14:38.925Z,5.07
2018-03-28T00:17:06.429Z,5.05
2018-03-28T00:19:33.917Z,5.01
2018-03-28T00:22:01.413Z,5.03
2018-03-28T00:24:28.890Z,5.07
2018-03-28T00:26:56.400Z,5.03
2018-03-28T00:29:23.892Z,5.04
2018-03-28T00:31:51.370Z,5.04
2018-03-28T00:34:18.866Z,5.00
2018-03-28T00:36:46.367Z,5.05
2018-03-28T00:39:13.878Z,5.05
2018-03-28T00:41:41.350Z,5.02
2018-03-28T00:44:08.883Z,4.94
2018-03-28T00:46:36.402Z,4.93
2018-03-28T00:49:03.927Z,4.91
2018-03-28T00:51:37.261Z,4.92
2018-03-28T00:54:04.758Z,4.88
2018-03-28T00:56:32.250Z,4.90
2018-03-28T00:58:59.752Z,4.84
2018-03-28T01:01:27.241Z,4.83
2018-03-28T01:03:54.737Z,4.82
2018-03-28T01:06:22.198Z,4.83
2018-03-28T01:08:49.669Z,4.78
2018-03-28T01:11:17.198Z,4.80
2018-03-28T01:13:44.689Z,4.78
2018-03-28T01:16:12.166Z,4.78
2018-03-28T01:18:39.676Z,4.71
2018-03-28T01:21:07.161Z,4.74
2018-03-28T01:23:34.637Z,4.75
2018-03-28T01:26:02.119Z,4.69
2018-03-28T01:28:29.663Z,4.73
2018-03-28T01:30:57.163Z,4.69
2018-03-28T01:33:24.659Z,4.69
2018-03-28T01:35:52.186Z,4.64
2018-03-28T01:38:19.663Z,4.59
2018-03-28T01:40:47.181Z,4.59
2018-03-28T01:43:14.702Z,4.59
2018-03-28T01:45:42.217Z,4.58
2018-03-28T01:48:09.698Z,4.57
2018-03-28T01:50:37.188Z,4.53
2018-03-28T01:53:04.685Z,4.56
2018-03-28T01:55:32.205Z,4.54
2018-03-28T01:57:59.720Z,4.52
2018-03-28T02:00:27.416Z,4.55
2018-03-28T02:02:55.135Z,4.53
2018-03-28T02:05:22.640Z,4.54
2018-03-28T02:07:50.156Z,4.55
2018-03-28T02:10:17.704Z,4.51
2018-03-28T02:12:45.200Z,4.56
2018-03-28T02:15:12.725Z,4.53
2018-03-28T02:17:40.262Z,4.52
2018-03-28T02:20:07.743Z,4.48
2018-03-28T02:22:35.224Z,4.50
2018-03-28T02:25:02.759Z,4.44
2018-03-28T02:27:30.261Z,4.48
2018-03-28T02:29:57.760Z,4.49
2018-03-28T02:32:25.289Z,4.45
2018-03-28T02:34:52.783Z,4.44
2018-03-28T02:37:20.283Z,4.43
2018-03-28T02:39:47.824Z,4.43
2018-03-28T02:42:15.325Z,4.47
2018-03-28T02:44:42.823Z,4.43
2018-03-28T02:47:10.309Z,4.41
2018-03-28T02:49:37.829Z,4.44
2018-03-28T02:52:05.307Z,4.45
2018-03-28T02:54:32.816Z,4.45
2018-03-28T02:57:00.354Z,4.49
2018-03-28T02:59:27.873Z,4.47
2018-03-28T03:01:55.361Z,4.53
2018-03-28T03:04:22.840Z,4.48
2018-03-28T03:06:50.340Z,4.45
2018-03-28T03:09:17.810Z,4.52
2018-03-28T03:11:45.285Z,4.50
2018-03-28T03:14:12.802Z,4.53
2018-03-28T03:16:40.322Z,4.49
2018-03-28T03:19:07.819Z,4.51
2018-03-28T03:21:35.320Z,4.53
2018-03-28T03:24:02.810Z,4.51
2018-03-28T03:26:30.300Z,4.55
2018-03-28T03:28:57.794Z,4.56
2018-03-28T03:31:25.308Z,4.58
2018-03-28T03:33:52.830Z,4.56
2018-03-28T03:36:21.157Z,4.59
2018-03-28T03:38:48.656Z,4.56
2018-03-28T03:41:16.157Z,4.60
2018-03-28T03:43:43.669Z,4.57
2018-03-28T03:46:11.194Z,4.56
2018-03-28T03:48:38.706Z,4.58
2018-03-28T03:51:06.203Z,4.58
2018-03-28T03:53:33.696Z,4.56
2018-03-28T03:56:01.208Z,4.60
2018-03-28T03:58:28.687Z,4.56
2018-03-28T04:00:56.171Z,4.61
2018-03-28T04:03:23.653Z,4.60
2018-03-28T04:05:51.138Z,4.69
2018-03-28T04:08:18.640Z,4.62
2018-03-28T04:10:46.145Z,4.66
2018-03-28T04:13:13.636Z,4.60
2018-03-28T04:15:41.163Z,4.68
2018-03-28T04:18:08.643Z,4.71
2018-03-28T04:20:36.143Z,4.68
2018-03-28T04:23:03.610Z,4.67
2018-03-28T04:25:31.102Z,4.67
2018-03-28T04:27:58.624Z,4.68
2018-03-28T04:30:29.042Z,4.76
2018-03-28T04:32:56.559Z,4.73
2018-03-28T04:35:24.384Z,4.70
2018-03-28T04:37:51.889Z,4.75
2018-03-28T04:40:19.392Z,4.75
2018-03-28T04:42:46.878Z,4.71
2018-03-28T04:45:14.362Z,4.75
2018-03-28T04:47:41.914Z,4.69
2018-03-28T04:50:09.367Z,4.69
2018-03-28T04:52:36.964Z,4.76
2018-03-28T04:55:04.458Z,4.76
2018-03-28T04:57:32.010Z,4.74
2018-03-28T04:59:59.511Z,4.72
2018-03-28T05:02:27.011Z,4.71
2018-03-28T05:04:54.498Z,4.66
2018-03-28T05:07:22.022Z,4.67
2018-03-28T05:09:49.510Z,4.67
2018-03-28T05:12:16.981Z,4.78
2018-03-28T05:14:44.489Z,4.75
2018-03-28T05:17:11.976Z,4.65
2018-03-28T05:19:39.505Z,4.67
2018-03-28T05:22:07.016Z,4.63
2018-03-28T05:24:34.501Z,4.65
2018-03-28T05:27:02.013Z,4.72
2018-03-28T05:29:29.511Z,4.69
2018-03-28T05:31:57.030Z,4.65
2018-03-28T05:34:24.526Z,4.62
2018-03-28T05:36:52.029Z,4.62
2018-03-28T05:39:19.527Z,4.65
2018-03-28T05:41:47.027Z,4.71
2018-03-28T05:44:14.522Z,4.69
2018-03-28T05:46:42.061Z,4.64
2018-03-28T05:49:09.557Z,4.70
2018-03-28T05:51:37.096Z,4.69
2018-03-28T05:54:04.581Z,4.70
2018-03-28T05:56:32.060Z,4.68
2018-03-28T05:58:59.553Z,4.78
2018-03-28T06:01:27.057Z,4.77
2018-03-28T06:03:54.549Z,4.75
2018-03-28T06:06:22.062Z,4.73
2018-03-28T06:08:49.542Z,4.68
2018-03-28T06:11:17.022Z,4.64
2018-03-28T06:13:44.507Z,4.59
2018-03-28T06:16:12.006Z,4.57
2018-03-28T06:18:39.504Z,4.70
2018-03-28T06:21:07.045Z,4.64
2018-03-28T06:23:34.592Z,4.65
2018-03-28T06:26:02.112Z,4.65
2018-03-28T06:28:29.580Z,4.75
2018-03-28T06:30:57.126Z,4.82
2018-03-28T06:33:24.641Z,4.85
2018-03-28T06:35:52.150Z,4.90
2018-03-28T06:38:19.634Z,4.80
2018-03-28T06:40:47.140Z,4.87
2018-03-28T06:43:14.643Z,4.84
2018-03-28T06:45:42.133Z,4.85
2018-03-28T06:48:09.623Z,4.90
2018-03-28T06:50:37.148Z,4.84
2018-03-28T06:53:04.678Z,4.86
2018-03-28T06:55:32.162Z,4.90
2018-03-28T06:57:59.701Z,4.91
2018-03-28T07:00:27.216Z,4.85
2018-03-28T07:02:54.724Z,4.86
2018-03-28T07:07:49.012Z,4.74
2018-03-28T07:10:16.509Z,4.72
2018-03-28T07:12:43.996Z,4.75
2018-03-28T07:15:11.488Z,4.88
2018-03-28T07:17:38.989Z,4.95
2018-03-28T07:20:06.538Z,4.80
2018-03-28T07:22:34.067Z,4.86
2018-03-28T07:25:01.548Z,4.75
2018-03-28T07:27:29.042Z,4.88
2018-03-28T07:29:56.537Z,4.92
2018-03-28T07:32:24.034Z,5.02
2018-03-28T07:34:51.537Z,4.99
2018-03-28T07:37:19.065Z,4.99
2018-03-28T07:39:46.633Z,4.98
2018-03-28T07:42:14.172Z,4.93
2018-03-28T07:44:41.663Z,4.98
2018-03-28T07:47:09.159Z,4.97
2018-03-28T07:49:36.661Z,5.12
2018-03-28T07:52:04.159Z,5.08
2018-03-28T07:54:31.652Z,5.02
2018-03-28T07:56:59.176Z,4.95
2018-03-28T07:59:26.705Z,4.98
2018-03-28T08:01:54.212Z,4.99
2018-03-28T08:04:21.708Z,5.05
2018-03-28T08:06:49.225Z,5.01
2018-03-28T08:09:16.729Z,5.07
2018-03-28T08:11:44.420Z,5.01
2018-03-28T08:14:13.258Z,5.09
2018-03-28T08:16:40.899Z,5.16
2018-03-28T08:19:08.437Z,5.11
2018-03-28T08:21:35.974Z,5.22
2018-03-28T08:24:03.535Z,5.28
2018-03-28T08:26:31.076Z,5.28
2018-03-28T08:28:58.604Z,5.23
2018-03-28T08:31:26.106Z,5.24
2018-03-28T08:33:53.607Z,5.28
2018-03-28T08:36:21.149Z,5.34
2018-03-28T08:38:48.694Z,5.42
2018-03-28T08:41:16.449Z,5.42
2018-03-28T08:43:43.954Z,5.50
2018-03-28T08:46:11.486Z,5.42
2018-03-28T08:48:39.000Z,5.55
2018-03-28T08:51:06.532Z,5.56
2018-03-28T08:53:34.314Z,5.54
2018-03-28T08:56:01.907Z,5.51
2018-03-28T08:58:29.404Z,5.43
2018-03-28T09:00:56.899Z,5.32
2018-03-28T09:03:24.393Z,5.37
2018-03-28T09:05:51.886Z,5.25
2018-03-28T09:08:19.477Z,5.40
2018-03-28T09:10:47.049Z,5.48
2018-03-28T09:13:14.556Z,5.50
2018-03-28T09:15:42.096Z,5.47
2018-03-28T09:18:09.624Z,5.51
2018-03-28T09:20:37.093Z,5.53
2018-03-28T09:23:04.590Z,5.49
2018-03-28T09:25:32.088Z,5.50
2018-03-28T09:27:59.599Z,5.51
2018-03-28T09:30:27.155Z,5.52
2018-03-28T09:32:54.724Z,5.73
2018-03-28T09:35:22.227Z,5.76
2018-03-28T09:37:49.737Z,5.66
2018-03-28T09:40:17.252Z,5.69
2018-03-28T09:42:44.810Z,5.89
2018-03-28T09:45:12.375Z,5.96
2018-03-28T09:47:39.852Z,5.87
2018-03-28T09:50:07.359Z,5.71
2018-03-28T09:52:34.839Z,5.65
2018-03-28T09:55:02.368Z,5.55
2018-03-28T09:57:29.909Z,5.79
2018-03-28T09:59:57.383Z,5.80
2018-03-28T10:02:30.674Z,5.78
2018-03-28T10:05:00.124Z,5.71
2018-03-28T10:07:27.673Z,5.86
2018-03-28T10:09:55.209Z,5.97
2018-03-28T10:12:22.754Z,6.04
2018-03-28T10:14:50.253Z,6.03
2018-03-28T10:17:17.744Z,6.00
2018-03-28T10:19:45.245Z,5.86
2018-03-28T10:22:12.753Z,5.92
2018-03-28T10:24:40.299Z,5.93
2018-03-28T10:27:07.816Z,6.06
2018-03-28T10:29:35.316Z,6.04
2018-03-28T10:32:02.813Z,5.93
2018-03-28T10:34:30.298Z,6.06
2018-03-28T10:36:57.828Z,6.12
2018-03-28T10:39:25.327Z,6.12
2018-03-28T10:41:52.831Z,6.22
2018-03-28T10:44:20.321Z,6.16
2018-03-28T10:46:47.801Z,6.24
2018-03-28T10:49:15.275Z,6.18
2018-03-28T10:51:42.800Z,6.19
2018-03-28T10:54:10.321Z,6.09
2018-03-28T10:56:37.794Z,6.30
2018-03-28T10:59:05.296Z,6.36
2018-03-28T11:01:32.798Z,6.43
2018-03-28T11:04:00.438Z,6.47
2018-03-28T11:06:27.954Z,6.42
2018-03-28T11:08:55.461Z,6.38
2018-03-28T11:11:22.973Z,6.34
2018-03-28T11:13:50.477Z,6.47
2018-03-28T11:16:17.991Z,6.43
2018-03-28T11:18:45.481Z,6.48
2018-03-28T11:21:13.025Z,6.46
2018-03-28T11:23:40.533Z,6.48
2018-03-28T11:26:08.065Z,6.50
2018-03-28T11:28:35.585Z,6.54
2018-03-28T11:31:03.109Z,6.55
2018-03-28T11:33:30.598Z,6.59
2018-03-28T11:35:58.125Z,6.58
2018-03-28T11:38:25.617Z,6.53
2018-03-28T11:40:53.148Z,6.59
2018-03-28T11:43:20.664Z,6.68
2018-03-28T11:45:48.159Z,6.69
2018-03-28T11:48:15.628Z,6.69
2018-03-28T11:50:43.113Z,6.61
2018-03-28T11:53:10.678Z,6.64
2018-03-28T11:55:38.147Z,6.65
2018-03-28T11:58:05.653Z,6.41
2018-03-28T12:00:33.166Z,6.45
2018-03-28T12:03:00.658Z,6.53
2018-03-28T12:05:28.140Z,6.51
2018-03-28T12:07:55.633Z,6.58
2018-03-28T12:10:23.124Z,6.49
2018-03-28T12:12:50.619Z,6.55
2018-03-28T12:15:18.115Z,6.55
2018-03-28T12:17:45.624Z,6.51
2018-03-28T12:20:13.091Z,6.55
2018-03-28T12:22:40.566Z,6.52
2018-03-28T12:25:08.091Z,6.60
2018-03-28T12:27:35.550Z,6.66
2018-03-28T12:30:03.074Z,6.58
2018-03-28T12:32:30.586Z,6.60
2018-03-28T12:34:58.061Z,6.67
2018-03-28T12:37:25.557Z,6.64
2018-03-28T12:39:53.060Z,6.51
2018-03-28T12:42:20.550Z,6.40
2018-03-28T12:44:48.038Z,6.45
2018-03-28T12:47:15.544Z,6.43
2018-03-28T12:49:43.102Z,6.41
2018-03-28T12:52:10.569Z,6.44
2018-03-28T12:54:38.083Z,6.46
2018-03-28T12:57:05.596Z,6.57
2018-03-28T12:59:33.111Z,6.46
2018-03-28T13:02:00.602Z,6.41
2018-03-28T13:04:28.092Z,6.39
2018-03-28T13:06:55.635Z,6.34
2018-03-28T13:09:23.146Z,6.34
2018-03-28T13:11:50.705Z,6.20
2018-03-28T13:14:18.208Z,6.16
2018-03-28T13:16:45.750Z,6.27
2018-03-28T13:19:13.238Z,6.31
2018-03-28T13:21:40.795Z,6.26
2018-03-28T13:24:08.307Z,6.29
2018-03-28T13:26:35.796Z,6.38
2018-03-28T13:29:03.337Z,6.48
2018-03-28T13:31:30.872Z,6.33
2018-03-28T13:33:58.366Z,6.32
2018-03-28T13:36:25.862Z,6.34
2018-03-28T13:38:53.373Z,6.29
2018-03-28T13:41:20.881Z,6.26
2018-03-28T13:43:48.420Z,6.23
2018-03-28T13:46:15.917Z,6.23
2018-03-28T13:48:43.424Z,6.38
2018-03-28T13:51:10.933Z,6.29
2018-03-28T13:53:38.426Z,6.35
2018-03-28T13:56:05.926Z,6.35
2018-03-28T13:58:33.444Z,6.24
2018-03-28T14:01:00.956Z,6.38
2018-03-28T14:03:28.445Z,6.42
2018-03-28T14:05:55.944Z,6.30
2018-03-28T14:08:23.456Z,6.48
2018-03-28T14:10:50.975Z,6.51
2018-03-28T14:13:18.489Z,6.46
2018-03-28T14:15:45.980Z,6.35
2018-03-28T14:18:13.484Z,6.49
2018-03-28T14:20:40.944Z,6.31
2018-03-28T14:23:08.456Z,6.37
2018-03-28T14:25:35.937Z,6.35
2018-03-28T14:28:03.457Z,6.47
2018-03-28T14:30:30.956Z,6.52
2018-03-28T14:32:58.454Z,6.55
2018-03-28T14:35:25.979Z,6.58
2018-03-28T14:37:53.486Z,6.55
2018-03-28T14:40:20.965Z,6.59
2018-03-28T14:42:54.587Z,6.46
2018-03-28T14:45:15.950Z,6.59
2018-03-28T14:47:43.449Z,6.60
2018-03-28T14:50:10.956Z,6.57
2018-03-28T14:52:38.434Z,6.46
2018-03-28T14:55:05.953Z,6.50
2018-03-28T14:57:33.452Z,6.48
2018-03-28T15:00:00.960Z,6.44
2018-03-28T15:02:28.456Z,6.36
2018-03-28T15:04:55.973Z,6.38
2018-03-28T15:07:23.469Z,6.43
2018-03-28T15:09:51.075Z,6.52
2018-03-28T15:12:18.618Z,6.44
2018-03-28T15:14:46.118Z,6.49
2018-03-28T15:17:13.753Z,6.50
2018-03-28T15:19:41.267Z,6.48
2018-03-28T15:22:08.765Z,6.55
2018-03-28T15:24:36.263Z,6.43
2018-03-28T15:27:03.810Z,6.43
2018-03-28T15:29:31.281Z,6.34
2018-03-28T15:31:59.868Z,6.18
2018-03-28T15:34:27.388Z,6.18
2018-03-28T15:36:54.888Z,6.10
2018-03-28T15:39:22.365Z,6.09
2018-03-28T15:41:50.335Z,6.17
2018-03-28T15:44:17.874Z,6.03
2018-03-28T15:46:45.353Z,6.06
2018-03-28T15:49:14.903Z,6.06
2018-03-28T15:51:42.668Z,6.02
2018-03-28T15:54:10.191Z,6.13
2018-03-28T15:56:37.682Z,6.07
2018-03-28T15:59:05.178Z,6.17
2018-03-28T16:01:32.808Z,6.12
2018-03-28T16:04:01.963Z,6.08
2018-03-28T16:06:29.658Z,6.08
2018-03-28T16:08:57.216Z,6.05
2018-03-28T16:11:24.807Z,6.02
2018-03-28T16:13:52.300Z,6.01
2018-03-28T16:16:19.798Z,5.90
2018-03-28T16:18:47.376Z,5.91
2018-03-28T16:21:15.073Z,5.73
2018-03-28T16:23:42.628Z,5.73
2018-03-28T16:26:10.131Z,5.83
2018-03-28T16:28:47.041Z,5.80
2018-03-28T16:31:14.598Z,5.75
2018-03-28T16:33:42.060Z,5.73
2018-03-28T16:36:09.785Z,5.73
2018-03-28T16:38:37.294Z,5.72
2018-03-28T16:41:05.609Z,5.71
2018-03-28T16:43:33.085Z,5.65
2018-03-28T16:46:00.604Z,5.61
2018-03-28T16:48:28.098Z,5.67
2018-03-28T16:50:55.634Z,5.64
2018-03-28T16:53:23.133Z,5.56
2018-03-28T16:55:50.652Z,5.55
2018-03-28T16:58:18.164Z,5.48
2018-03-28T17:00:45.646Z,5.45
2018-03-28T17:03:13.158Z,5.44
2018-03-28T17:05:40.722Z,5.43
2018-03-28T17:08:08.168Z,5.41
2018-03-28T17:10:35.718Z,5.42
2018-03-28T17:13:03.202Z,5.39
2018-03-28T17:15:30.754Z,5.41
2018-03-28T17:17:59.892Z,5.37
2018-03-28T17:20:27.441Z,5.27
2018-03-28T17:22:54.950Z,5.29
2018-03-28T17:25:22.445Z,5.30
2018-03-28T17:27:50.123Z,5.33
2018-03-28T17:30:18.458Z,5.16
2018-03-28T17:32:45.961Z,5.15
2018-03-28T17:35:13.517Z,5.16
2018-03-28T17:37:41.048Z,5.10
2018-03-28T17:40:09.295Z,5.09
2018-03-28T17:42:36.813Z,5.07
2018-03-28T17:45:04.400Z,5.06
2018-03-28T17:47:31.849Z,5.04
2018-03-28T17:49:59.331Z,4.95
2018-03-28T17:52:26.830Z,5.01
2018-03-28T17:54:54.335Z,5.02
2018-03-28T17:57:21.874Z,5.02
2018-03-28T17:59:49.391Z,4.92
2018-03-28T18:02:16.863Z,4.92
2018-03-28T18:04:44.414Z,4.99
2018-03-28T18:07:12.664Z,4.95
2018-03-28T18:09:40.231Z,4.99
2018-03-28T18:12:07.809Z,4.98
2018-03-28T18:14:35.894Z,5.04
2018-03-28T18:17:03.441Z,4.98
2018-03-28T18:19:32.152Z,4.99
2018-03-28T18:21:59.718Z,4.93
2018-03-28T18:24:28.669Z,4.91
2018-03-28T18:26:56.211Z,4.85
2018-03-28T18:29:23.682Z,4.86
2018-03-28T18:31:51.186Z,4.86
2018-03-28T18:34:18.663Z,4.86
2018-03-28T18:36:46.194Z,4.83
2018-03-28T18:39:13.733Z,4.90
2018-03-28T18:41:41.223Z,4.83
2018-03-28T18:44:08.733Z,4.79
2018-03-28T18:46:36.239Z,4.85
2018-03-28T18:49:03.710Z,4.70
2018-03-28T18:51:31.205Z,4.64
2018-03-28T18:53:58.703Z,4.67
2018-03-28T18:56:26.186Z,4.71
2018-03-28T18:58:53.662Z,4.67
2018-03-28T19:01:21.162Z,4.69
2018-03-28T19:03:48.668Z,4.65
2018-03-28T19:06:16.185Z,4.64
2018-03-28T19:08:43.690Z,4.63
2018-03-28T19:11:11.182Z,4.62
2018-03-28T19:13:38.722Z,4.63
2018-03-28T19:16:06.182Z,4.63
2018-03-28T19:18:33.688Z,4.63
2018-03-28T19:21:01.214Z,4.59
2018-03-28T19:23:28.744Z,4.63
2018-03-28T19:25:56.235Z,4.63
2018-03-28T19:28:23.751Z,4.67
2018-03-28T19:30:51.249Z,4.71
2018-03-28T19:33:27.479Z,4.74
2018-03-28T19:50:24.273Z,4.69
2018-03-28T19:52:51.849Z,4.71
2018-03-28T19:55:19.384Z,4.70
2018-03-28T19:57:46.879Z,4.70
2018-03-28T20:00:14.385Z,4.71
2018-03-28T20:02:41.954Z,4.74
2018-03-28T20:05:09.487Z,4.74
2018-03-28T20:07:36.999Z,4.73
2018-03-28T20:10:04.555Z,4.74
2018-03-28T20:12:32.150Z,4.70
2018-03-28T20:14:59.676Z,4.64
2018-03-28T20:17:27.199Z,4.67
2018-03-28T20:19:54.703Z,4.67
2018-03-28T20:22:22.200Z,4.65
2018-03-28T20:24:49.708Z,4.65
2018-03-28T20:27:17.231Z,4.63
2018-03-28T20:29:44.772Z,4.64
2018-03-28T20:32:12.275Z,4.60
2018-03-28T20:34:39.794Z,4.60
2018-03-28T20:37:07.345Z,4.60
2018-03-28T20:39:34.869Z,4.61
2018-03-28T20:42:02.402Z,4.62
2018-03-28T20:44:29.987Z,4.64
2018-03-28T20:46:57.493Z,4.63
2018-03-28T20:49:25.032Z,4.65
2018-03-28T20:51:52.537Z,4.66
2018-03-28T20:54:20.041Z,4.72
2018-03-28T20:56:47.578Z,4.66
2018-03-28T20:59:15.079Z,4.69
2018-03-28T21:01:42.586Z,4.69
2018-03-28T21:04:10.091Z,4.69
2018-03-28T21:06:37.611Z,4.70
2018-03-28T21:09:05.138Z,4.69
2018-03-28T21:11:32.690Z,4.72
2018-03-28T21:14:00.261Z,4.76
2018-03-28T21:16:27.762Z,4.77
2018-03-28T21:18:55.317Z,4.80
2018-03-28T21:21:22.857Z,4.78
2018-03-28T21:23:50.349Z,4.80
2018-03-28T21:26:17.877Z,4.81
2018-03-28T21:28:45.394Z,4.81
2018-03-28T21:31:12.941Z,4.79
2018-03-28T21:33:40.472Z,4.76
2018-03-28T21:36:08.072Z,4.72
2018-03-28T21:38:35.704Z,4.72
2018-03-28T21:41:03.215Z,4.76
2018-03-28T21:43:30.777Z,4.80
2018-03-28T21:45:58.288Z,4.83
2018-03-28T21:48:25.869Z,4.80
2018-03-28T21:50:53.428Z,4.78
2018-03-28T21:53:20.952Z,4.77
2018-03-28T21:55:48.550Z,4.79
2018-03-28T21:58:16.101Z,4.81
2018-03-28T22:00:43.663Z,4.83
2018-03-28T22:03:11.177Z,4.86
2018-03-28T22:05:38.674Z,4.85
2018-03-28T22:08:06.170Z,4.86
2018-03-28T22:10:33.685Z,4.85
2018-03-28T22:13:01.194Z,4.86
2018-03-28T22:15:28.710Z,4.86
2018-03-28T22:17:56.250Z,4.88
2018-03-28T22:20:23.741Z,4.97
2018-03-28T22:22:51.244Z,4.93
2018-03-28T22:25:18.767Z,4.94
2018-03-28T22:27:46.300Z,4.96
2018-03-28T22:30:13.831Z,5.01
2018-03-28T22:32:41.321Z,5.07
2018-03-28T22:35:08.817Z,5.10
2018-03-28T22:37:36.307Z,5.15
2018-03-28T22:40:03.808Z,5.20
2018-03-28T22:42:31.321Z,5.22
2018-03-28T22:44:58.821Z,5.24
2018-03-28T22:47:26.372Z,5.23
2018-03-28T22:49:53.897Z,5.18
2018-03-28T22:52:21.392Z,5.19
2018-03-28T22:54:48.921Z,5.20
2018-03-28T22:57:16.415Z,5.23
2018-03-28T22:59:43.948Z,5.19
2018-03-28T23:02:11.492Z,5.18
2018-03-28T23:04:38.989Z,5.19
2018-03-28T23:07:06.493Z,5.18
2018-03-28T23:09:34.019Z,5.21
2018-03-28T23:12:01.544Z,5.29
2018-03-28T23:14:29.056Z,5.29
2018-03-28T23:16:56.564Z,5.32
2018-03-28T23:19:24.082Z,5.38
2018-03-28T23:21:51.609Z,5.45
2018-03-28T23:24:19.119Z,5.47
2018-03-28T23:26:46.655Z,5.53
2018-03-28T23:29:14.239Z,5.62
2018-03-28T23:31:42.024Z,5.77
2018-03-28T23:34:09.525Z,6.29
2018-03-28T23:36:37.108Z,6.55
2018-03-28T23:39:04.634Z,6.90
2018-03-28T23:41:32.143Z,6.99
2018-03-28T23:43:59.663Z,6.97
2018-03-28T23:46:27.202Z,6.99
2018-03-28T23:48:54.711Z,6.93
2018-03-28T23:51:22.249Z,6.89
2018-03-28T23:53:49.776Z,6.88
2018-03-28T23:56:17.294Z,6.88
2018-03-28T23:58:44.819Z,6.84
